Time,TemperatureF,DewpointF,PressureIn,WindDirection,WindDirectionDegrees,WindSpeedMPH,WindSpeedGustMPH,Humidity,HourlyPrecipIn,Conditions,Clouds,dailyrainin,SoftwareType,DateUTC
2013-02-14 00:12:00,40.6,39.0,30.05,NE,43,0.0,0.0,95,0.00,,,0.00,weatherlink.com 1.10,2013-02-14 06:12:00,
2013-02-14 00:27:00,40.4,39.0,30.05,NE,43,0.0,0.0,96,0.00,,,0.00,weatherlink.com 1.10,2013-02-14 06:27:00,
2013-02-14 00:42:00,39.9,39.0,30.06,NE,43,0.0,0.0,96,0.00,,,0.00,weatherlink.com 1.10,2013-02-14 06:42:00,
2013-02-14 00:57:00,39.9,39.0,30.06,NE,43,0.0,0.0,96,0.00,,,0.00,weatherlink.com 1.10,2013-02-14 06:57:00,
2013-02-14 01:12:00,39.5,39.0,30.06,NE,43,0.0,0.0,97,0.00,,,0.00,weatherlink.com 1.10,2013-02-14 07:12:00,
2013-02-14 01:27:00,39.1,38.0,30.06,NE,43,0.0,0.0,97,0.00,,,0.00,weatherlink.com 1.10,2013-02-14 07:27:00,
2013-02-14 01:42:00,39.3,39.0,30.06,NE,43,0.0,1.0,97,0.00,,,0.00,weatherlink.com 1.10,2013-02-14 07:42:00,
2013-02-14 01:57:00,38.7,38.0,30.07,NE,43,0.0,1.0,97,0.00,,,0.00,weatherlink.com 1.10,2013-02-14 07:57:00,
2013-02-14 02:12:00,38.6,38.0,30.07,NE,43,0.0,0.0,97,0.00,,,0.00,weatherlink.com 1.10,2013-02-14 08:12:00,
2013-02-14 02:27:00,38.4,38.0,30.07,NE,43,0.0,0.0,97,0.00,,,0.00,weatherlink.com 1.10,2013-02-14 08:27:00,
2013-02-14 02:42:00,38.2,38.0,30.07,NE,43,0.0,0.0,98,0.00,,,0.00,weatherlink.com 1.10,2013-02-14 08:42:00,
2013-02-14 02:57:00,38.0,38.0,30.07,NE,43,0.0,0.0,98,0.00,,,0.00,weatherlink.com 1.10,2013-02-14 08:57:00,
2013-02-14 03:12:00,38.0,38.0,30.07,NE,43,0.0,0.0,98,0.00,,,0.00,weatherlink.com 1.10,2013-02-14 09:12:00,
2013-02-14 03:27:00,37.8,37.0,30.07,NE,43,0.0,0.0,98,0.00,,,0.00,weatherlink.com 1.10,2013-02-14 09:27:00,
2013-02-14 03:42:00,37.8,37.0,30.07,NE,43,0.0,0.0,98,0.00,,,0.00,weatherlink.com 1.10,2013-02-14 09:42:00,
2013-02-14 03:57:00,37.5,37.0,30.07,NE,43,0.0,0.0,98,0.00,,,0.00,weatherlink.com 1.10,2013-02-14 09:57:00,
2013-02-14 04:12:00,37.2,37.0,30.07,NE,43,0.0,0.0,98,0.00,,,0.00,weatherlink.com 1.10,2013-02-14 10:12:00,
2013-02-14 04:27:00,36.9,36.0,30.07,NE,43,0.0,0.0,98,0.00,,,0.00,weatherlink.com 1.10,2013-02-14 10:27:00,
2013-02-14 04:42:00,36.8,36.0,30.07,NE,43,0.0,0.0,98,0.00,,,0.00,weatherlink.com 1.10,2013-02-14 10:42:00,
2013-02-14 04:57:00,37.3,37.0,30.09,NE,43,0.0,0.0,98,0.00,,,0.00,weatherlink.com 1.10,2013-02-14 10:57:00,
2013-02-14 05:12:00,37.4,37.0,30.09,NE,43,0.0,0.0,98,0.00,,,0.00,weatherlink.com 1.10,2013-02-14 11:12:00,
2013-02-14 05:27:00,37.5,37.0,30.09,NE,43,0.0,0.0,98,0.00,,,0.00,weatherlink.com 1.10,2013-02-14 11:27:00,
2013-02-14 05:42:00,38.4,38.0,30.09,NE,43,0.0,2.0,99,0.00,,,0.00,weatherlink.com 1.10,2013-02-14 11:42:00,
2013-02-14 05:57:00,38.9,39.0,30.09,NE,40,0.0,2.0,99,0.00,,,0.00,weatherlink.com 1.10,2013-02-14 11:57:00,
2013-02-14 06:13:00,39.1,39.0,30.10,NNW,346,2.0,4.0,99,0.00,,,0.00,weatherlink.com 1.10,2013-02-14 12:13:00,
2013-02-14 06:28:00,39.3,39.0,30.10,NNW,338,1.0,3.0,99,0.00,,,0.00,weatherlink.com 1.10,2013-02-14 12:28:00,
2013-02-14 06:43:00,38.8,38.0,30.10,NNW,338,0.0,0.0,98,0.00,,,0.00,weatherlink.com 1.10,2013-02-14 12:43:00,
2013-02-14 06:58:00,38.3,38.0,30.11,NNW,338,0.0,0.0,98,0.00,,,0.00,weatherlink.com 1.10,2013-02-14 12:58:00,
2013-02-14 07:13:00,38.4,38.0,30.12,NNE,29,0.0,2.0,98,0.00,,,0.00,weatherlink.com 1.10,2013-02-14 13:13:00,
2013-02-14 07:28:00,39.9,40.0,30.12,NNE,29,0.0,0.0,99,0.00,,,0.00,weatherlink.com 1.10,2013-02-14 13:28:00,
2013-02-14 07:43:00,41.5,41.0,30.12,NNE,29,0.0,1.0,99,0.00,,,0.00,weatherlink.com 1.10,2013-02-14 13:43:00,
2013-02-14 07:58:00,43.3,43.0,30.13,NNE,29,0.0,2.0,99,0.00,,,0.00,weatherlink.com 1.10,2013-02-14 13:58:00,
2013-02-14 08:13:00,45.8,46.0,30.13,ENE,72,1.0,3.0,99,0.00,,,0.00,weatherlink.com 1.10,2013-02-14 14:13:00,
2013-02-14 08:28:00,46.5,45.0,30.14,East,86,1.0,3.0,94,0.00,,,0.00,weatherlink.com 1.10,2013-02-14 14:28:00,
2013-02-14 08:43:00,48.7,46.0,30.14,East,99,1.0,3.0,90,0.00,,,0.00,weatherlink.com 1.10,2013-02-14 14:43:00,
2013-02-14 08:58:00,52.3,47.0,30.14,East,83,3.0,3.0,82,0.00,,,0.00,weatherlink.com 1.10,2013-02-14 14:58:00,
2013-02-14 09:13:00,51.8,45.0,30.14,East,96,3.0,4.0,77,0.00,,,0.00,weatherlink.com 1.10,2013-02-14 15:13:00,
2013-02-14 09:28:00,51.9,45.0,30.14,ESE,112,2.0,6.0,76,0.00,,,0.00,weatherlink.com 1.10,2013-02-14 15:28:00,
2013-02-14 09:43:00,52.5,45.0,30.13,East,92,6.0,6.0,75,0.00,,,0.00,weatherlink.com 1.10,2013-02-14 15:43:00,
2013-02-14 09:58:00,54.0,45.0,30.14,East,92,2.0,5.0,72,0.00,,,0.00,weatherlink.com 1.10,2013-02-14 15:58:00,
2013-02-14 10:13:00,54.6,45.0,30.14,ENE,67,0.0,4.0,71,0.00,,,0.00,weatherlink.com 1.10,2013-02-14 16:13:00,
2013-02-14 10:28:00,54.1,45.0,30.14,SSW,195,1.0,5.0,70,0.00,,,0.00,weatherlink.com 1.10,2013-02-14 16:28:00,
2013-02-14 10:43:00,55.9,45.0,30.14,SE,128,1.0,2.0,66,0.00,,,0.00,weatherlink.com 1.10,2013-02-14 16:43:00,
2013-02-14 10:58:00,54.4,43.0,30.14,SW,225,4.0,5.0,66,0.00,,,0.00,weatherlink.com 1.10,2013-02-14 16:58:00,
2013-02-14 11:13:00,57.1,46.0,30.13,NNE,26,1.0,3.0,66,0.00,,,0.00,weatherlink.com 1.10,2013-02-14 17:13:00,
2013-02-14 11:28:00,58.0,44.0,30.13,WNW,298,2.0,6.0,60,0.00,,,0.00,weatherlink.com 1.10,2013-02-14 17:28:00,
2013-02-14 11:43:00,59.6,45.0,30.13,NE,56,2.0,4.0,59,0.00,,,0.00,weatherlink.com 1.10,2013-02-14 17:43:00,
2013-02-14 11:58:00,60.0,44.0,30.12,NNE,16,2.0,5.0,55,0.00,,,0.00,weatherlink.com 1.10,2013-02-14 17:58:00,
2013-02-14 12:13:00,59.8,43.0,30.11,NW,304,2.0,6.0,54,0.00,,,0.00,weatherlink.com 1.10,2013-02-14 18:13:00,
2013-02-14 12:28:00,59.7,45.0,30.10,ENE,60,0.0,5.0,58,0.00,,,0.00,weatherlink.com 1.10,2013-02-14 18:28:00,
2013-02-14 12:43:00,58.5,44.0,30.09,NW,321,2.0,6.0,60,0.00,,,0.00,weatherlink.com 1.10,2013-02-14 18:43:00,
2013-02-14 12:58:00,60.5,45.0,30.09,NNE,21,2.0,8.0,57,0.00,,,0.00,weatherlink.com 1.10,2013-02-14 18:58:00,
2013-02-14 13:14:00,62.0,46.0,30.08,NW,321,6.0,8.0,56,0.00,,,0.00,weatherlink.com 1.10,2013-02-14 19:14:00,
2013-02-14 13:29:00,60.5,45.0,30.08,NW,314,3.0,11.0,56,0.00,,,0.00,weatherlink.com 1.10,2013-02-14 19:29:00,
2013-02-14 13:44:00,61.6,46.0,30.07,ENE,65,3.0,13.0,58,0.00,,,0.00,weatherlink.com 1.10,2013-02-14 19:44:00,
2013-02-14 13:59:00,61.0,46.0,30.07,NNW,345,2.0,11.0,59,0.00,,,0.00,weatherlink.com 1.10,2013-02-14 19:59:00,
2013-02-14 14:14:00,60.5,44.0,30.06,NW,325,4.0,8.0,55,0.00,,,0.00,weatherlink.com 1.10,2013-02-14 20:14:00,
2013-02-14 14:29:00,61.1,46.0,30.06,WNW,300,6.0,9.0,59,0.00,,,0.00,weatherlink.com 1.10,2013-02-14 20:29:00,
2013-02-14 14:44:00,62.3,46.0,30.06,WSW,258,2.0,6.0,55,0.00,,,0.00,weatherlink.com 1.10,2013-02-14 20:44:00,
2013-02-14 14:59:00,61.3,44.0,30.05,WSW,253,4.0,10.0,53,0.00,,,0.00,weatherlink.com 1.10,2013-02-14 20:59:00,
2013-02-14 15:14:00,62.3,44.0,30.05,NW,305,6.0,8.0,51,0.00,,,0.00,weatherlink.com 1.10,2013-02-14 21:14:00,
2013-02-14 15:29:00,62.1,45.0,30.05,WNW,302,3.0,6.0,53,0.00,,,0.00,weatherlink.com 1.10,2013-02-14 21:29:00,
2013-02-14 15:44:00,61.0,42.0,30.05,NW,324,3.0,12.0,50,0.00,,,0.00,weatherlink.com 1.10,2013-02-14 21:44:00,
2013-02-14 15:59:00,61.2,43.0,30.06,NW,320,1.0,10.0,52,0.00,,,0.00,weatherlink.com 1.10,2013-02-14 21:59:00,
2013-02-14 16:14:00,61.4,42.0,30.05,NW,326,3.0,7.0,50,0.00,,,0.00,weatherlink.com 1.10,2013-02-14 22:14:00,
2013-02-14 16:29:00,61.3,42.0,30.05,NNW,335,3.0,5.0,49,0.00,,,0.00,weatherlink.com 1.10,2013-02-14 22:29:00,
2013-02-14 16:44:00,61.6,42.0,30.05,NNE,32,4.0,6.0,48,0.00,,,0.00,weatherlink.com 1.10,2013-02-14 22:44:00,
2013-02-14 16:59:00,60.3,42.0,30.05,NW,324,3.0,7.0,51,0.00,,,0.00,weatherlink.com 1.10,2013-02-14 22:59:00,
2013-02-14 17:14:00,60.0,42.0,30.05,NW,323,3.0,4.0,52,0.00,,,0.00,weatherlink.com 1.10,2013-02-14 23:14:00,
2013-02-14 17:29:00,59.5,43.0,30.05,NNW,329,1.0,3.0,54,0.00,,,0.00,weatherlink.com 1.10,2013-02-14 23:29:00,
2013-02-14 17:44:00,57.7,42.0,30.05,NW,313,2.0,4.0,57,0.00,,,0.00,weatherlink.com 1.10,2013-02-14 23:44:00,
2013-02-14 17:59:00,55.7,43.0,30.05,NW,313,0.0,2.0,62,0.00,,,0.00,weatherlink.com 1.10,2013-02-14 23:59:00,
2013-02-14 18:14:00,54.4,42.0,30.05,NW,313,0.0,0.0,64,0.00,,,0.00,weatherlink.com 1.10,2013-02-15 00:14:00,
2013-02-14 18:29:00,53.2,42.0,30.06,NW,313,0.0,0.0,67,0.00,,,0.00,weatherlink.com 1.10,2013-02-15 00:29:00,
2013-02-14 18:44:00,51.8,43.0,30.06,NW,313,0.0,0.0,72,0.00,,,0.00,weatherlink.com 1.10,2013-02-15 00:44:00,
2013-02-14 18:59:00,50.6,43.0,30.06,NW,313,0.0,0.0,76,0.00,,,0.00,weatherlink.com 1.10,2013-02-15 00:59:00,
2013-02-14 19:14:00,49.6,43.0,30.07,NW,313,0.0,1.0,78,0.00,,,0.00,weatherlink.com 1.10,2013-02-15 01:14:00,
2013-02-14 19:29:00,48.7,43.0,30.07,NW,313,0.0,0.0,82,0.00,,,0.00,weatherlink.com 1.10,2013-02-15 01:29:00,
2013-02-14 19:44:00,47.8,43.0,30.07,NW,313,0.0,0.0,82,0.00,,,0.00,weatherlink.com 1.10,2013-02-15 01:44:00,
2013-02-14 19:59:00,47.0,43.0,30.08,NW,313,0.0,0.0,86,0.00,,,0.00,weatherlink.com 1.10,2013-02-15 01:59:00,
2013-02-14 20:14:00,46.5,43.0,30.08,NW,313,0.0,0.0,88,0.00,,,0.00,weatherlink.com 1.10,2013-02-15 02:14:00,
2013-02-14 20:29:00,45.8,43.0,30.08,NW,313,0.0,0.0,88,0.00,,,0.00,weatherlink.com 1.10,2013-02-15 02:29:00,
2013-02-14 20:44:00,45.1,42.0,30.09,NW,313,0.0,0.0,90,0.00,,,0.00,weatherlink.com 1.10,2013-02-15 02:44:00,
2013-02-14 20:59:00,44.6,42.0,30.08,NW,313,0.0,0.0,91,0.00,,,0.00,weatherlink.com 1.10,2013-02-15 02:59:00,
2013-02-14 21:14:00,44.2,42.0,30.09,NW,313,0.0,0.0,93,0.00,,,0.00,weatherlink.com 1.10,2013-02-15 03:14:00,
2013-02-14 21:29:00,43.8,42.0,30.09,NW,313,0.0,0.0,93,0.00,,,0.00,weatherlink.com 1.10,2013-02-15 03:29:00,
2013-02-14 21:44:00,43.4,42.0,30.09,NW,313,0.0,0.0,94,0.00,,,0.00,weatherlink.com 1.10,2013-02-15 03:44:00,
2013-02-14 21:59:00,43.0,41.0,30.09,NW,313,0.0,0.0,94,0.00,,,0.00,weatherlink.com 1.10,2013-02-15 03:59:00,
2013-02-14 22:14:00,42.5,41.0,30.09,NW,313,0.0,0.0,95,0.00,,,0.00,weatherlink.com 1.10,2013-02-15 04:14:00,
2013-02-14 22:29:00,42.4,41.0,30.09,NW,313,0.0,0.0,95,0.00,,,0.00,weatherlink.com 1.10,2013-02-15 04:29:00,
2013-02-14 22:44:00,42.4,41.0,30.09,NW,313,0.0,0.0,96,0.00,,,0.00,weatherlink.com 1.10,2013-02-15 04:44:00,
2013-02-14 22:59:00,42.1,41.0,30.09,NW,313,0.0,0.0,95,0.00,,,0.00,weatherlink.com 1.10,2013-02-15 04:59:00,
2013-02-14 23:14:00,41.9,41.0,30.08,NW,313,0.0,0.0,95,0.00,,,0.00,weatherlink.com 1.10,2013-02-15 05:14:00,
2013-02-14 23:29:00,41.8,41.0,30.08,NW,313,0.0,0.0,95,0.00,,,0.00,weatherlink.com 1.10,2013-02-15 05:29:00,
2013-02-14 23:44:00,41.6,40.0,30.08,NW,313,0.0,0.0,95,0.00,,,0.00,weatherlink.com 1.10,2013-02-15 05:44:00,
2013-02-14 23:59:00,41.6,41.0,30.08,NW,313,0.0,0.0,96,0.00,,,0.00,weatherlink.com 1.10,2013-02-15 05:59:00,